Cape Girardeau, MO

6:35 AM CDT on April 27, 2015 (GMT -0500)
Timber Creek | | Change Station
CLOSE
Current Station
Personal Weather Station
Location: Cape Girardeau, MO
Elevation: 440 ft
Nearby Weather Stations

Elev 440 ft 37.34 °N, 89.54 °W | Updated 10 seconds ago

Clear
Clear
45.7 °F
Feels Like 46 °F
N
0.0
Wind Variable Wind from East
Gusts 2.0 mph

Today
High -- | Low -- °F
--% Chance of Precip.
Yesterday
High -- | Low -- °F
Precip. -- in
6:08 AM 7:43 PM
Waxing Gibbous, 64% visible
Pressure 30.01 in
Visibility 10.0 miles
Clouds Clear
Windchill 46 °F
Dew Point 35 °F
Humidity 66%
Rainfall 0.00 in
Snow Depth Not available.
UV 0.0 out of 12
Pollen 9.60 out of 12
Air Quality Not available.
Flu Activity Local Activity
METAR KCGI 271053Z AUTO 03008KT 10SM CLR 07/01 A3001 RMK AO2 SLP161 T00720011 TSNO

More Conditions Fewer Conditions

Pressure 30.01 in
Visibility 10.0 miles
Clouds Clear
Windchill 46 °F
Dew Point 35 °F
Humidity 66%
Rainfall 0.00 in
Snow Depth Not available.
UV 0.0 out of 12
Pollen 9.60 out of 12
Air Quality Not available.
Flu Activity Local Activity
METAR KCGI 271053Z AUTO 03008KT 10SM CLR 07/01 A3001 RMK AO2 SLP161 T00720011 TSNO

More Conditions Fewer Conditions

10-Day Weather Forecast

Almanac

Astronomy

Apr. 27, 2015 Rise Set
Actual Time
Civil Twilight
Nautical Twilight
Astronomical Twilight
Moon
Length of Visible Light
Length of Day
Tomorrow will be .
, % of the Moon is Illuminated

Today's Extremes

State Highs State Lows

Community

WunderPhotos

Upload Photos

1,817,283 photos uploaded!

WunderBlogs® & News

Nearby

Air Quality

  Air Quality AQ Index Pollutant
Not available.

Snow Depth

Station Depth Elevation

Earthquake Activity

City Distance Mag. Time & Date
Minimum magnitude displayed is 2.5.

Coastal Water Temperatures

Place Temperature

Stations

Nearby Weather Stations

Station Location Temp. Windchill Dew Point Humidity Wind Precip. Elev Updated Type